< < Back
Terminal Aerodrome Forecast


Current Version              Previous Versions:   1  2  3  4  5  6  7  8  9  

Terminal Aerodrome Forecast

013
FTUS42 KFFC 161100
TAFAHN
TAF
KAHN 161128Z 1612/1712 VRB02KT 1SM BR OVC003
      TEMPO 1612/1615 5SM -RA BR BKN005
     FM161500 28005KT P6SM VCSH BKN015
     FM161700 30007KT P6SM SCT025 BKN040
     FM161900 31008KT P6SM SCT050 BKN100
     FM170200 30003KT P6SM SCT120 BKN250=

Latest METAR

221
SAUS70 KWBC 161100
MTRAHN
METAR KAHN 161051Z AUTO 00000KT 1/2SM VV001 22/21 A3009 RMK AO2 SLP184
T02170211


USA.gov is the U.S. government's official web portal to all federal, state and local government web resources and services.